sensor_id;sensor_type;location;lat;lon;timestamp;temperature;humidity
13600;DHT22;6871;51.34740610;4.31323160;2023-01-31T00:00:50;14.90;68.90
13600;DHT22;6871;51.34740610;4.31323160;2023-01-31T00:03:20;14.90;69.00
13600;DHT22;6871;51.34740610;4.31323160;2023-01-31T00:05:49;14.90;69.00
13600;DHT22;6871;51.34740610;4.31323160;2023-01-31T00:08:18;14.90;68.90
13600;DHT22;6871;51.34740610;4.31323160;2023-01-31T00:10:47;14.90;69.00
13600;DHT22;6871;51.34740610;4.31323160;2023-01-31T00:13:17;14.90;68.90
13600;DHT22;6871;51.34740610;4.31323160;2023-01-31T00:15:47;14.80;68.90
13600;DHT22;6871;51.34740610;4.31323160;2023-01-31T00:18:16;14.90;69.10
13600;DHT22;6871;51.34740610;4.31323160;2023-01-31T00:20:46;14.80;69.00
13600;DHT22;6871;51.34740610;4.31323160;2023-01-31T00:23:15;14.90;69.10
13600;DHT22;6871;51.34740610;4.31323160;2023-01-31T00:25:44;14.90;69.00
13600;DHT22;6871;51.34740610;4.31323160;2023-01-31T00:28:14;14.90;69.00
13600;DHT22;6871;51.34740610;4.31323160;2023-01-31T00:30:43;14.90;69.00
13600;DHT22;6871;51.34740610;4.31323160;2023-01-31T00:33:12;14.80;69.10
13600;DHT22;6871;51.34740610;4.31323160;2023-01-31T00:35:42;14.90;69.00
13600;DHT22;6871;51.34740610;4.31323160;2023-01-31T00:38:11;14.90;69.00
13600;DHT22;6871;51.34740610;4.31323160;2023-01-31T00:40:40;14.80;69.00
13600;DHT22;6871;51.34740610;4.31323160;2023-01-31T00:43:10;14.90;69.70
13600;DHT22;6871;51.34740610;4.31323160;2023-01-31T00:45:39;14.80;69.00
13600;DHT22;6871;51.34740610;4.31323160;2023-01-31T00:48:08;14.90;69.10
13600;DHT22;6871;51.34740610;4.31323160;2023-01-31T00:50:38;14.90;69.20
13600;DHT22;6871;51.34740610;4.31323160;2023-01-31T00:53:07;14.80;69.10
13600;DHT22;6871;51.34740610;4.31323160;2023-01-31T00:55:36;14.90;69.20
13600;DHT22;6871;51.34740610;4.31323160;2023-01-31T00:58:06;14.80;69.10
13600;DHT22;6871;51.34740610;4.31323160;2023-01-31T01:00:36;14.80;69.00
13600;DHT22;6871;51.34740610;4.31323160;2023-01-31T01:03:05;14.80;69.10
13600;DHT22;6871;51.34740610;4.31323160;2023-01-31T01:05:35;14.80;69.10
13600;DHT22;6871;51.34740610;4.31323160;2023-01-31T01:08:04;14.80;69.10
13600;DHT22;6871;51.34740610;4.31323160;2023-01-31T01:10:34;14.80;69.10
13600;DHT22;6871;51.34740610;4.31323160;2023-01-31T01:13:04;14.80;69.20
13600;DHT22;6871;51.34740610;4.31323160;2023-01-31T01:15:36;14.80;69.20
13600;DHT22;6871;51.34740610;4.31323160;2023-01-31T01:18:06;14.80;69.20
13600;DHT22;6871;51.34740610;4.31323160;2023-01-31T01:20:36;14.90;69.20
13600;DHT22;6871;51.34740610;4.31323160;2023-01-31T01:23:05;14.80;69.20
13600;DHT22;6871;51.34740610;4.31323160;2023-01-31T01:25:42;14.80;69.20
13600;DHT22;6871;51.34740610;4.31323160;2023-01-31T01:28:12;14.80;69.00
13600;DHT22;6871;51.34740610;4.31323160;2023-01-31T01:30:41;14.80;69.10
13600;DHT22;6871;51.34740610;4.31323160;2023-01-31T01:33:10;14.80;69.20
13600;DHT22;6871;51.34740610;4.31323160;2023-01-31T01:35:40;14.80;70.00
13600;DHT22;6871;51.34740610;4.31323160;2023-01-31T01:38:10;14.80;69.20
13600;DHT22;6871;51.34740610;4.31323160;2023-01-31T01:40:39;14.80;69.30
13600;DHT22;6871;51.34740610;4.31323160;2023-01-31T01:43:11;14.80;69.20
13600;DHT22;6871;51.34740610;4.31323160;2023-01-31T01:45:40;14.80;69.20
13600;DHT22;6871;51.34740610;4.31323160;2023-01-31T01:48:14;14.80;69.30
13600;DHT22;6871;51.34740610;4.31323160;2023-01-31T01:50:47;14.80;69.20
13600;DHT22;6871;51.34740610;4.31323160;2023-01-31T01:53:19;14.80;69.30
13600;DHT22;6871;51.34740610;4.31323160;2023-01-31T01:55:50;14.80;69.30
13600;DHT22;6871;51.34740610;4.31323160;2023-01-31T01:58:24;14.80;70.10
13600;DHT22;6871;51.34740610;4.31323160;2023-01-31T02:00:53;14.80;69.20
13600;DHT22;6871;51.34740610;4.31323160;2023-01-31T02:03:23;14.80;69.20
13600;DHT22;6871;51.34740610;4.31323160;2023-01-31T02:05:54;14.80;69.30
13600;DHT22;6871;51.34740610;4.31323160;2023-01-31T02:08:26;14.80;69.30
13600;DHT22;6871;51.34740610;4.31323160;2023-01-31T02:10:59;14.80;69.30
13600;DHT22;6871;51.34740610;4.31323160;2023-01-31T02:13:29;14.80;69.30
13600;DHT22;6871;51.34740610;4.31323160;2023-01-31T02:16:00;14.80;69.30
13600;DHT22;6871;51.34740610;4.31323160;2023-01-31T02:18:29;14.80;69.30
13600;DHT22;6871;51.34740610;4.31323160;2023-01-31T02:21:22;14.80;69.20
13600;DHT22;6871;51.34740610;4.31323160;2023-01-31T02:24:06;14.80;69.30
13600;DHT22;6871;51.34740610;4.31323160;2023-01-31T02:26:58;14.80;69.30
13600;DHT22;6871;51.34740610;4.31323160;2023-01-31T02:29:56;14.80;69.30
13600;DHT22;6871;51.34740610;4.31323160;2023-01-31T02:32:51;14.80;69.40
13600;DHT22;6871;51.34740610;4.31323160;2023-01-31T02:35:29;14.80;69.30
13600;DHT22;6871;51.34740610;4.31323160;2023-01-31T02:38:04;14.70;69.40
13600;DHT22;6871;51.34740610;4.31323160;2023-01-31T02:40:37;14.70;69.50
13600;DHT22;6871;51.34740610;4.31323160;2023-01-31T02:43:10;14.70;69.40
13600;DHT22;6871;51.34740610;4.31323160;2023-01-31T02:45:44;14.70;69.40
13600;DHT22;6871;51.34740610;4.31323160;2023-01-31T02:48:17;14.70;69.40
13600;DHT22;6871;51.34740610;4.31323160;2023-01-31T02:50:52;14.70;69.40
13600;DHT22;6871;51.34740610;4.31323160;2023-01-31T02:53:23;14.70;69.30
13600;DHT22;6871;51.34740610;4.31323160;2023-01-31T02:55:56;14.70;69.30
13600;DHT22;6871;51.34740610;4.31323160;2023-01-31T02:58:55;14.70;69.30
13600;DHT22;6871;51.34740610;4.31323160;2023-01-31T03:01:24;14.70;69.30
13600;DHT22;6871;51.34740610;4.31323160;2023-01-31T03:03:58;14.70;69.30
13600;DHT22;6871;51.34740610;4.31323160;2023-01-31T03:06:51;14.70;69.30
13600;DHT22;6871;51.34740610;4.31323160;2023-01-31T03:09:29;14.70;69.40
13600;DHT22;6871;51.34740610;4.31323160;2023-01-31T03:12:07;14.70;69.40
13600;DHT22;6871;51.34740610;4.31323160;2023-01-31T03:14:39;14.70;69.40
13600;DHT22;6871;51.34740610;4.31323160;2023-01-31T03:17:11;14.70;69.40
13600;DHT22;6871;51.34740610;4.31323160;2023-01-31T03:20:07;14.70;69.30
13600;DHT22;6871;51.34740610;4.31323160;2023-01-31T03:22:39;14.70;69.40
13600;DHT22;6871;51.34740610;4.31323160;2023-01-31T03:25:11;14.70;69.40
13600;DHT22;6871;51.34740610;4.31323160;2023-01-31T03:27:44;14.70;69.30
13600;DHT22;6871;51.34740610;4.31323160;2023-01-31T03:32:49;14.70;69.30
13600;DHT22;6871;51.34740610;4.31323160;2023-01-31T03:35:20;14.70;69.20
13600;DHT22;6871;51.34740610;4.31323160;2023-01-31T03:37:54;14.70;69.80
13600;DHT22;6871;51.34740610;4.31323160;2023-01-31T03:40:26;14.70;69.20
13600;DHT22;6871;51.34740610;4.31323160;2023-01-31T03:42:59;14.70;69.20
13600;DHT22;6871;51.34740610;4.31323160;2023-01-31T03:45:32;14.70;69.10
13600;DHT22;6871;51.34740610;4.31323160;2023-01-31T03:48:03;14.70;69.20
13600;DHT22;6871;51.34740610;4.31323160;2023-01-31T03:50:38;14.70;69.00
13600;DHT22;6871;51.34740610;4.31323160;2023-01-31T03:53:10;14.70;69.00
13600;DHT22;6871;51.34740610;4.31323160;2023-01-31T03:55:43;14.70;69.00
13600;DHT22;6871;51.34740610;4.31323160;2023-01-31T03:58:14;14.70;69.10
13600;DHT22;6871;51.34740610;4.31323160;2023-01-31T04:00:45;14.70;69.20
13600;DHT22;6871;51.34740610;4.31323160;2023-01-31T04:03:19;14.70;69.20
13600;DHT22;6871;51.34740610;4.31323160;2023-01-31T04:05:48;14.70;69.10
13600;DHT22;6871;51.34740610;4.31323160;2023-01-31T04:08:17;14.70;69.00
13600;DHT22;6871;51.34740610;4.31323160;2023-01-31T04:10:47;14.70;68.90
13600;DHT22;6871;51.34740610;4.31323160;2023-01-31T04:13:18;14.70;68.80
13600;DHT22;6871;51.34740610;4.31323160;2023-01-31T04:15:49;14.70;68.60
13600;DHT22;6871;51.34740610;4.31323160;2023-01-31T04:18:18;14.80;68.60
13600;DHT22;6871;51.34740610;4.31323160;2023-01-31T04:20:48;14.80;68.60
13600;DHT22;6871;51.34740610;4.31323160;2023-01-31T04:23:17;14.80;68.60
13600;DHT22;6871;51.34740610;4.31323160;2023-01-31T04:25:46;14.80;68.50
13600;DHT22;6871;51.34740610;4.31323160;2023-01-31T04:28:16;14.80;68.50
13600;DHT22;6871;51.34740610;4.31323160;2023-01-31T04:30:45;14.80;68.50
13600;DHT22;6871;51.34740610;4.31323160;2023-01-31T04:33:15;14.80;68.50
13600;DHT22;6871;51.34740610;4.31323160;2023-01-31T04:35:44;14.80;68.30
13600;DHT22;6871;51.34740610;4.31323160;2023-01-31T04:38:13;14.80;68.40
13600;DHT22;6871;51.34740610;4.31323160;2023-01-31T04:40:43;14.80;68.50
13600;DHT22;6871;51.34740610;4.31323160;2023-01-31T04:43:12;14.80;68.40
13600;DHT22;6871;51.34740610;4.31323160;2023-01-31T04:45:41;14.80;68.30
13600;DHT22;6871;51.34740610;4.31323160;2023-01-31T04:48:11;14.80;68.40
13600;DHT22;6871;51.34740610;4.31323160;2023-01-31T04:50:40;14.80;68.30
13600;DHT22;6871;51.34740610;4.31323160;2023-01-31T04:53:10;14.80;68.30
13600;DHT22;6871;51.34740610;4.31323160;2023-01-31T04:55:39;14.80;68.30
13600;DHT22;6871;51.34740610;4.31323160;2023-01-31T04:58:09;14.80;68.30
13600;DHT22;6871;51.34740610;4.31323160;2023-01-31T05:00:38;14.70;68.20
13600;DHT22;6871;51.34740610;4.31323160;2023-01-31T05:03:08;14.70;68.20
13600;DHT22;6871;51.34740610;4.31323160;2023-01-31T05:05:37;14.80;68.20
13600;DHT22;6871;51.34740610;4.31323160;2023-01-31T05:08:06;14.80;68.10
13600;DHT22;6871;51.34740610;4.31323160;2023-01-31T05:10:36;14.80;68.20
13600;DHT22;6871;51.34740610;4.31323160;2023-01-31T05:13:05;14.80;68.10
13600;DHT22;6871;51.34740610;4.31323160;2023-01-31T05:15:34;14.80;68.20
13600;DHT22;6871;51.34740610;4.31323160;2023-01-31T05:18:05;14.80;68.20
13600;DHT22;6871;51.34740610;4.31323160;2023-01-31T05:20:36;14.80;68.20
13600;DHT22;6871;51.34740610;4.31323160;2023-01-31T05:23:07;14.80;68.00
13600;DHT22;6871;51.34740610;4.31323160;2023-01-31T05:25:37;14.80;68.20
13600;DHT22;6871;51.34740610;4.31323160;2023-01-31T05:28:07;14.80;68.10
13600;DHT22;6871;51.34740610;4.31323160;2023-01-31T05:30:36;14.80;68.10
13600;DHT22;6871;51.34740610;4.31323160;2023-01-31T05:33:05;14.70;68.10
13600;DHT22;6871;51.34740610;4.31323160;2023-01-31T05:35:35;14.80;68.10
13600;DHT22;6871;51.34740610;4.31323160;2023-01-31T05:38:06;14.80;68.00
13600;DHT22;6871;51.34740610;4.31323160;2023-01-31T05:40:36;14.80;67.90
13600;DHT22;6871;51.34740610;4.31323160;2023-01-31T05:43:05;14.70;68.10
13600;DHT22;6871;51.34740610;4.31323160;2023-01-31T05:45:35;14.80;68.20
13600;DHT22;6871;51.34740610;4.31323160;2023-01-31T05:48:05;14.80;68.20
13600;DHT22;6871;51.34740610;4.31323160;2023-01-31T05:50:34;14.80;68.10
13600;DHT22;6871;51.34740610;4.31323160;2023-01-31T05:53:03;14.70;68.10
13600;DHT22;6871;51.34740610;4.31323160;2023-01-31T05:55:33;14.70;68.20
13600;DHT22;6871;51.34740610;4.31323160;2023-01-31T05:58:02;14.80;68.20
13600;DHT22;6871;51.34740610;4.31323160;2023-01-31T06:00:31;14.80;68.10
13600;DHT22;6871;51.34740610;4.31323160;2023-01-31T06:03:01;14.80;68.00
13600;DHT22;6871;51.34740610;4.31323160;2023-01-31T06:05:30;14.70;67.80
13600;DHT22;6871;51.34740610;4.31323160;2023-01-31T06:08:00;14.80;67.80
13600;DHT22;6871;51.34740610;4.31323160;2023-01-31T06:10:30;14.80;67.80
13600;DHT22;6871;51.34740610;4.31323160;2023-01-31T06:12:59;14.80;67.90
13600;DHT22;6871;51.34740610;4.31323160;2023-01-31T06:15:28;14.80;68.00
13600;DHT22;6871;51.34740610;4.31323160;2023-01-31T06:17:59;14.80;67.90
13600;DHT22;6871;51.34740610;4.31323160;2023-01-31T06:20:28;14.80;67.80
13600;DHT22;6871;51.34740610;4.31323160;2023-01-31T06:22:57;14.80;67.80
13600;DHT22;6871;51.34740610;4.31323160;2023-01-31T06:25:28;14.80;67.90
13600;DHT22;6871;51.34740610;4.31323160;2023-01-31T06:27:57;14.80;68.10
13600;DHT22;6871;51.34740610;4.31323160;2023-01-31T06:30:27;14.80;68.00
13600;DHT22;6871;51.34740610;4.31323160;2023-01-31T06:32:58;14.80;67.90
13600;DHT22;6871;51.34740610;4.31323160;2023-01-31T06:35:28;14.80;68.00
13600;DHT22;6871;51.34740610;4.31323160;2023-01-31T06:37:57;14.80;68.70
13600;DHT22;6871;51.34740610;4.31323160;2023-01-31T06:40:27;14.80;68.60
13600;DHT22;6871;51.34740610;4.31323160;2023-01-31T06:42:57;14.80;68.50
13600;DHT22;6871;51.34740610;4.31323160;2023-01-31T06:45:27;14.80;68.60
13600;DHT22;6871;51.34740610;4.31323160;2023-01-31T06:47:56;14.80;68.60
13600;DHT22;6871;51.34740610;4.31323160;2023-01-31T06:50:25;14.80;68.20
13600;DHT22;6871;51.34740610;4.31323160;2023-01-31T06:52:55;14.80;67.90
13600;DHT22;6871;51.34740610;4.31323160;2023-01-31T06:55:26;14.80;67.80
13600;DHT22;6871;51.34740610;4.31323160;2023-01-31T06:57:56;14.80;68.10
13600;DHT22;6871;51.34740610;4.31323160;2023-01-31T07:00:25;14.80;68.10
13600;DHT22;6871;51.34740610;4.31323160;2023-01-31T07:02:54;14.80;68.10
13600;DHT22;6871;51.34740610;4.31323160;2023-01-31T07:05:24;14.80;68.00
13600;DHT22;6871;51.34740610;4.31323160;2023-01-31T07:07:53;14.80;68.10
13600;DHT22;6871;51.34740610;4.31323160;2023-01-31T07:10:22;14.80;68.00
13600;DHT22;6871;51.34740610;4.31323160;2023-01-31T07:12:52;14.80;68.20
13600;DHT22;6871;51.34740610;4.31323160;2023-01-31T07:15:21;14.80;68.20
13600;DHT22;6871;51.34740610;4.31323160;2023-01-31T07:17:50;14.80;68.20
13600;DHT22;6871;51.34740610;4.31323160;2023-01-31T07:20:21;14.80;68.20
13600;DHT22;6871;51.34740610;4.31323160;2023-01-31T07:22:54;14.80;68.10
13600;DHT22;6871;51.34740610;4.31323160;2023-01-31T07:25:24;14.80;68.40
13600;DHT22;6871;51.34740610;4.31323160;2023-01-31T07:27:53;14.80;68.40
13600;DHT22;6871;51.34740610;4.31323160;2023-01-31T07:30:23;14.80;68.40
13600;DHT22;6871;51.34740610;4.31323160;2023-01-31T07:32:52;14.80;68.40
13600;DHT22;6871;51.34740610;4.31323160;2023-01-31T07:35:22;14.80;68.20
13600;DHT22;6871;51.34740610;4.31323160;2023-01-31T07:37:52;14.80;68.10
13600;DHT22;6871;51.34740610;4.31323160;2023-01-31T07:40:22;14.80;68.00
13600;DHT22;6871;51.34740610;4.31323160;2023-01-31T07:42:51;14.80;68.10
13600;DHT22;6871;51.34740610;4.31323160;2023-01-31T07:45:22;14.80;68.20
13600;DHT22;6871;51.34740610;4.31323160;2023-01-31T07:47:51;14.70;68.50
13600;DHT22;6871;51.34740610;4.31323160;2023-01-31T07:50:21;14.80;68.90
13600;DHT22;6871;51.34740610;4.31323160;2023-01-31T07:52:50;14.80;68.80
13600;DHT22;6871;51.34740610;4.31323160;2023-01-31T07:55:19;14.70;69.30
13600;DHT22;6871;51.34740610;4.31323160;2023-01-31T07:57:49;14.70;69.20
13600;DHT22;6871;51.34740610;4.31323160;2023-01-31T08:00:20;14.70;69.20
13600;DHT22;6871;51.34740610;4.31323160;2023-01-31T08:16:32;14.80;70.00
13600;DHT22;6871;51.34740610;4.31323160;2023-01-31T08:19:03;14.60;69.60
13600;DHT22;6871;51.34740610;4.31323160;2023-01-31T08:21:32;14.60;69.60
13600;DHT22;6871;51.34740610;4.31323160;2023-01-31T08:24:02;14.70;69.70
13600;DHT22;6871;51.34740610;4.31323160;2023-01-31T08:26:31;14.70;69.50
13600;DHT22;6871;51.34740610;4.31323160;2023-01-31T08:29:01;14.70;70.10
13600;DHT22;6871;51.34740610;4.31323160;2023-01-31T08:31:31;14.70;69.30
13600;DHT22;6871;51.34740610;4.31323160;2023-01-31T08:34:00;14.80;69.30
13600;DHT22;6871;51.34740610;4.31323160;2023-01-31T08:36:31;14.70;69.30
13600;DHT22;6871;51.34740610;4.31323160;2023-01-31T08:41:39;14.80;69.20
13600;DHT22;6871;51.34740610;4.31323160;2023-01-31T08:44:12;14.80;69.20
13600;DHT22;6871;51.34740610;4.31323160;2023-01-31T08:46:42;14.80;69.40
13600;DHT22;6871;51.34740610;4.31323160;2023-01-31T08:49:12;14.80;69.60
13600;DHT22;6871;51.34740610;4.31323160;2023-01-31T08:51:41;14.80;69.80
13600;DHT22;6871;51.34740610;4.31323160;2023-01-31T08:54:12;14.70;69.10
13600;DHT22;6871;51.34740610;4.31323160;2023-01-31T08:56:42;14.70;69.20
13600;DHT22;6871;51.34740610;4.31323160;2023-01-31T08:59:12;14.70;69.30
13600;DHT22;6871;51.34740610;4.31323160;2023-01-31T09:01:41;14.70;69.60
13600;DHT22;6871;51.34740610;4.31323160;2023-01-31T09:04:12;14.70;69.20
13600;DHT22;6871;51.34740610;4.31323160;2023-01-31T09:06:41;14.70;69.20
13600;DHT22;6871;51.34740610;4.31323160;2023-01-31T09:09:11;14.70;69.00
13600;DHT22;6871;51.34740610;4.31323160;2023-01-31T09:11:40;14.70;69.10
13600;DHT22;6871;51.34740610;4.31323160;2023-01-31T09:14:10;14.80;69.20
13600;DHT22;6871;51.34740610;4.31323160;2023-01-31T09:16:39;14.80;69.20
13600;DHT22;6871;51.34740610;4.31323160;2023-01-31T09:19:09;14.80;69.30
13600;DHT22;6871;51.34740610;4.31323160;2023-01-31T09:21:38;14.80;69.20
13600;DHT22;6871;51.34740610;4.31323160;2023-01-31T09:24:09;14.80;69.20
13600;DHT22;6871;51.34740610;4.31323160;2023-01-31T09:26:39;14.80;69.30
13600;DHT22;6871;51.34740610;4.31323160;2023-01-31T09:29:08;14.80;69.30
13600;DHT22;6871;51.34740610;4.31323160;2023-01-31T09:31:37;14.80;69.40
13600;DHT22;6871;51.34740610;4.31323160;2023-01-31T09:34:07;14.70;69.30
13600;DHT22;6871;51.34740610;4.31323160;2023-01-31T09:36:37;14.80;70.20
13600;DHT22;6871;51.34740610;4.31323160;2023-01-31T09:39:07;14.80;69.50
13600;DHT22;6871;51.34740610;4.31323160;2023-01-31T09:41:40;14.80;69.50
13600;DHT22;6871;51.34740610;4.31323160;2023-01-31T09:44:12;14.90;69.40
13600;DHT22;6871;51.34740610;4.31323160;2023-01-31T09:46:45;14.90;69.40
13600;DHT22;6871;51.34740610;4.31323160;2023-01-31T09:49:18;14.90;69.40
13600;DHT22;6871;51.34740610;4.31323160;2023-01-31T09:51:52;14.90;69.40
13600;DHT22;6871;51.34740610;4.31323160;2023-01-31T09:54:24;14.90;69.30
13600;DHT22;6871;51.34740610;4.31323160;2023-01-31T09:56:59;14.90;69.40
13600;DHT22;6871;51.34740610;4.31323160;2023-01-31T09:59:34;14.90;69.40
13600;DHT22;6871;51.34740610;4.31323160;2023-01-31T10:02:10;15.00;69.30
13600;DHT22;6871;51.34740610;4.31323160;2023-01-31T10:04:52;15.00;69.60
13600;DHT22;6871;51.34740610;4.31323160;2023-01-31T10:07:22;14.90;69.30
13600;DHT22;6871;51.34740610;4.31323160;2023-01-31T10:09:54;14.80;69.00
13600;DHT22;6871;51.34740610;4.31323160;2023-01-31T10:12:28;14.70;69.80
13600;DHT22;6871;51.34740610;4.31323160;2023-01-31T10:14:59;14.70;70.50
13600;DHT22;6871;51.34740610;4.31323160;2023-01-31T10:17:33;14.70;70.60
13600;DHT22;6871;51.34740610;4.31323160;2023-01-31T10:20:07;14.80;70.30
13600;DHT22;6871;51.34740610;4.31323160;2023-01-31T10:22:40;14.90;70.20
13600;DHT22;6871;51.34740610;4.31323160;2023-01-31T10:25:18;15.00;70.20
13600;DHT22;6871;51.34740610;4.31323160;2023-01-31T10:27:50;15.00;70.00
13600;DHT22;6871;51.34740610;4.31323160;2023-01-31T10:30:24;15.00;69.50
13600;DHT22;6871;51.34740610;4.31323160;2023-01-31T10:32:57;14.50;70.70
13600;DHT22;6871;51.34740610;4.31323160;2023-01-31T10:35:28;14.20;71.90
13600;DHT22;6871;51.34740610;4.31323160;2023-01-31T10:38:00;14.30;72.10
13600;DHT22;6871;51.34740610;4.31323160;2023-01-31T10:40:33;14.30;72.00
13600;DHT22;6871;51.34740610;4.31323160;2023-01-31T10:43:08;14.30;72.20
13600;DHT22;6871;51.34740610;4.31323160;2023-01-31T10:45:39;14.40;72.10
13600;DHT22;6871;51.34740610;4.31323160;2023-01-31T10:48:17;14.50;71.90
13600;DHT22;6871;51.34740610;4.31323160;2023-01-31T10:50:53;14.50;71.60
13600;DHT22;6871;51.34740610;4.31323160;2023-01-31T10:53:41;14.60;72.10
13600;DHT22;6871;51.34740610;4.31323160;2023-01-31T10:56:13;14.60;71.90
13600;DHT22;6871;51.34740610;4.31323160;2023-01-31T10:58:43;14.70;71.30
13600;DHT22;6871;51.34740610;4.31323160;2023-01-31T11:01:12;14.70;71.40
13600;DHT22;6871;51.34740610;4.31323160;2023-01-31T11:03:44;14.70;71.30
13600;DHT22;6871;51.34740610;4.31323160;2023-01-31T11:06:14;14.70;71.50
13600;DHT22;6871;51.34740610;4.31323160;2023-01-31T11:08:46;14.70;71.20
13600;DHT22;6871;51.34740610;4.31323160;2023-01-31T11:11:17;14.80;71.10
13600;DHT22;6871;51.34740610;4.31323160;2023-01-31T11:13:57;14.80;71.10
13600;DHT22;6871;51.34740610;4.31323160;2023-01-31T11:16:30;14.80;72.30
13600;DHT22;6871;51.34740610;4.31323160;2023-01-31T11:19:02;14.80;71.90
13600;DHT22;6871;51.34740610;4.31323160;2023-01-31T11:21:33;14.80;71.60
13600;DHT22;6871;51.34740610;4.31323160;2023-01-31T11:24:12;14.80;71.50
13600;DHT22;6871;51.34740610;4.31323160;2023-01-31T11:26:39;14.90;71.40
13600;DHT22;6871;51.34740610;4.31323160;2023-01-31T11:29:16;14.80;71.30
13600;DHT22;6871;51.34740610;4.31323160;2023-01-31T11:31:44;14.80;71.20
13600;DHT22;6871;51.34740610;4.31323160;2023-01-31T11:34:23;14.80;72.10
13600;DHT22;6871;51.34740610;4.31323160;2023-01-31T11:37:02;14.90;71.30
13600;DHT22;6871;51.34740610;4.31323160;2023-01-31T11:39:29;14.90;71.70
13600;DHT22;6871;51.34740610;4.31323160;2023-01-31T11:42:05;14.90;71.80
13600;DHT22;6871;51.34740610;4.31323160;2023-01-31T11:44:35;14.80;71.90
13600;DHT22;6871;51.34740610;4.31323160;2023-01-31T11:47:05;14.90;71.80
13600;DHT22;6871;51.34740610;4.31323160;2023-01-31T11:49:38;14.90;71.70
13600;DHT22;6871;51.34740610;4.31323160;2023-01-31T11:52:14;14.80;71.80
13600;DHT22;6871;51.34740610;4.31323160;2023-01-31T11:54:46;14.90;71.90
13600;DHT22;6871;51.34740610;4.31323160;2023-01-31T11:57:21;14.80;72.00
13600;DHT22;6871;51.34740610;4.31323160;2023-01-31T11:59:53;14.90;71.90
13600;DHT22;6871;51.34740610;4.31323160;2023-01-31T12:02:29;14.90;71.90
13600;DHT22;6871;51.34740610;4.31323160;2023-01-31T12:04:58;14.90;71.90
13600;DHT22;6871;51.34740610;4.31323160;2023-01-31T12:07:36;14.90;71.90
13600;DHT22;6871;51.34740610;4.31323160;2023-01-31T12:10:04;14.90;72.20
13600;DHT22;6871;51.34740610;4.31323160;2023-01-31T12:12:35;14.90;72.80
13600;DHT22;6871;51.34740610;4.31323160;2023-01-31T12:15:12;14.90;73.10
13600;DHT22;6871;51.34740610;4.31323160;2023-01-31T12:17:44;14.40;75.30
13600;DHT22;6871;51.34740610;4.31323160;2023-01-31T12:20:22;14.40;75.00
13600;DHT22;6871;51.34740610;4.31323160;2023-01-31T12:22:56;14.50;74.80
13600;DHT22;6871;51.34740610;4.31323160;2023-01-31T12:25:31;14.50;74.60
13600;DHT22;6871;51.34740610;4.31323160;2023-01-31T12:28:05;14.60;74.80
13600;DHT22;6871;51.34740610;4.31323160;2023-01-31T12:33:42;14.50;75.90
13600;DHT22;6871;51.34740610;4.31323160;2023-01-31T12:36:18;14.60;75.70
13600;DHT22;6871;51.34740610;4.31323160;2023-01-31T12:38:57;14.60;75.50
13600;DHT22;6871;51.34740610;4.31323160;2023-01-31T12:41:32;14.60;75.50
13600;DHT22;6871;51.34740610;4.31323160;2023-01-31T12:44:13;14.70;75.50
13600;DHT22;6871;51.34740610;4.31323160;2023-01-31T12:46:50;14.70;75.30
13600;DHT22;6871;51.34740610;4.31323160;2023-01-31T12:49:43;14.70;75.10
13600;DHT22;6871;51.34740610;4.31323160;2023-01-31T12:52:17;14.70;75.20
13600;DHT22;6871;51.34740610;4.31323160;2023-01-31T12:54:53;14.70;75.20
13600;DHT22;6871;51.34740610;4.31323160;2023-01-31T12:57:29;14.70;75.20
13600;DHT22;6871;51.34740610;4.31323160;2023-01-31T13:00:07;14.70;75.10
13600;DHT22;6871;51.34740610;4.31323160;2023-01-31T13:02:43;14.70;75.10
13600;DHT22;6871;51.34740610;4.31323160;2023-01-31T13:05:20;14.70;75.10
13600;DHT22;6871;51.34740610;4.31323160;2023-01-31T13:07:51;14.80;75.10
13600;DHT22;6871;51.34740610;4.31323160;2023-01-31T13:10:32;14.80;75.10
13600;DHT22;6871;51.34740610;4.31323160;2023-01-31T13:13:03;14.80;75.10
13600;DHT22;6871;51.34740610;4.31323160;2023-01-31T13:15:37;14.80;75.20
13600;DHT22;6871;51.34740610;4.31323160;2023-01-31T13:18:09;14.80;75.20
13600;DHT22;6871;51.34740610;4.31323160;2023-01-31T13:20:42;14.80;75.10
13600;DHT22;6871;51.34740610;4.31323160;2023-01-31T13:23:15;14.80;75.10
13600;DHT22;6871;51.34740610;4.31323160;2023-01-31T13:25:48;14.80;75.10
13600;DHT22;6871;51.34740610;4.31323160;2023-01-31T13:28:20;14.80;75.10
13600;DHT22;6871;51.34740610;4.31323160;2023-01-31T13:30:54;14.80;75.10
13600;DHT22;6871;51.34740610;4.31323160;2023-01-31T13:33:31;14.80;75.00
13600;DHT22;6871;51.34740610;4.31323160;2023-01-31T13:36:14;14.80;75.20
13600;DHT22;6871;51.34740610;4.31323160;2023-01-31T13:38:43;14.80;75.40
13600;DHT22;6871;51.34740610;4.31323160;2023-01-31T13:41:18;14.80;75.20
13600;DHT22;6871;51.34740610;4.31323160;2023-01-31T13:43:48;14.80;75.60
13600;DHT22;6871;51.34740610;4.31323160;2023-01-31T13:46:20;14.80;75.50
13600;DHT22;6871;51.34740610;4.31323160;2023-01-31T13:48:53;14.80;75.50
13600;DHT22;6871;51.34740610;4.31323160;2023-01-31T13:51:26;14.90;75.50
13600;DHT22;6871;51.34740610;4.31323160;2023-01-31T13:53:59;14.80;75.30
13600;DHT22;6871;51.34740610;4.31323160;2023-01-31T13:56:31;14.90;75.30
13600;DHT22;6871;51.34740610;4.31323160;2023-01-31T13:59:01;14.90;75.30
13600;DHT22;6871;51.34740610;4.31323160;2023-01-31T14:01:34;14.90;75.10
13600;DHT22;6871;51.34740610;4.31323160;2023-01-31T14:04:24;14.90;75.20
13600;DHT22;6871;51.34740610;4.31323160;2023-01-31T14:07:13;14.90;75.10
13600;DHT22;6871;51.34740610;4.31323160;2023-01-31T14:09:45;14.70;76.70
13600;DHT22;6871;51.34740610;4.31323160;2023-01-31T14:12:35;14.70;76.90
13600;DHT22;6871;51.34740610;4.31323160;2023-01-31T14:18:08;14.80;76.50
13600;DHT22;6871;51.34740610;4.31323160;2023-01-31T14:20:37;14.80;76.30
13600;DHT22;6871;51.34740610;4.31323160;2023-01-31T14:23:28;14.80;76.50
13600;DHT22;6871;51.34740610;4.31323160;2023-01-31T14:25:58;14.80;76.10